sensor_id;sensor_type;location;lat;lon;timestamp;pressure;altitude;pressure_sealevel;temperature;humidity
10832;BME280;5469;48.574;8.768;2023-01-24T00:00:07;96033.31;;;1.65;91.60
10832;BME280;5469;48.574;8.768;2023-01-24T00:02:45;96043.28;;;1.55;92.56
10832;BME280;5469;48.574;8.768;2023-01-24T00:05:19;96030.97;;;1.70;92.30
10832;BME280;5469;48.574;8.768;2023-01-24T00:07:53;96038.38;;;1.67;91.99
10832;BME280;5469;48.574;8.768;2023-01-24T00:10:27;96034.94;;;1.88;90.47
10832;BME280;5469;48.574;8.768;2023-01-24T00:13:01;96019.63;;;1.63;91.33
10832;BME280;5469;48.574;8.768;2023-01-24T00:15:35;96024.84;;;1.63;92.11
10832;BME280;5469;48.574;8.768;2023-01-24T00:18:10;96030.03;;;1.57;92.52
10832;BME280;5469;48.574;8.768;2023-01-24T00:20:43;96024.97;;;1.55;92.32
10832;BME280;5469;48.574;8.768;2023-01-24T00:23:17;96022.13;;;1.71;91.96
10832;BME280;5469;48.574;8.768;2023-01-24T00:25:50;96021.38;;;1.56;91.90
10832;BME280;5469;48.574;8.768;2023-01-24T00:28:24;96019.13;;;1.53;93.15
10832;BME280;5469;48.574;8.768;2023-01-24T00:30:57;96025.59;;;1.57;93.24
10832;BME280;5469;48.574;8.768;2023-01-24T00:33:33;96023.63;;;1.59;92.43
10832;BME280;5469;48.574;8.768;2023-01-24T00:36:08;96032.09;;;1.61;92.91
10832;BME280;5469;48.574;8.768;2023-01-24T00:38:41;96021.63;;;1.61;91.90
10832;BME280;5469;48.574;8.768;2023-01-24T00:41:15;96030.97;;;1.70;91.97
10832;BME280;5469;48.574;8.768;2023-01-24T00:43:49;96031.75;;;1.71;92.06
10832;BME280;5469;48.574;8.768;2023-01-24T00:46:22;96031.34;;;1.67;92.75
10832;BME280;5469;48.574;8.768;2023-01-24T00:48:57;96031.59;;;1.51;93.28
10832;BME280;5469;48.574;8.768;2023-01-24T00:51:32;96038.94;;;1.62;92.80
10832;BME280;5469;48.574;8.768;2023-01-24T00:54:05;96046.13;;;1.60;92.90
10832;BME280;5469;48.574;8.768;2023-01-24T00:56:38;96041.41;;;1.70;91.59
10832;BME280;5469;48.574;8.768;2023-01-24T00:59:12;96043.41;;;1.68;91.82
10832;BME280;5469;48.574;8.768;2023-01-24T01:01:45;96045.41;;;1.66;92.29
10832;BME280;5469;48.574;8.768;2023-01-24T01:04:20;96049.69;;;1.52;92.99
10832;BME280;5469;48.574;8.768;2023-01-24T01:06:53;96043.78;;;1.65;92.18
10832;BME280;5469;48.574;8.768;2023-01-24T01:09:26;96046.63;;;1.70;92.15
10832;BME280;5469;48.574;8.768;2023-01-24T01:12:00;96054.22;;;1.65;91.70
10832;BME280;5469;48.574;8.768;2023-01-24T01:14:33;96050.00;;;1.86;90.61
10832;BME280;5469;48.574;8.768;2023-01-24T01:17:06;96053.38;;;1.80;91.58
10832;BME280;5469;48.574;8.768;2023-01-24T01:19:41;96059.59;;;1.79;91.31
10832;BME280;5469;48.574;8.768;2023-01-24T01:22:15;96059.97;;;1.75;91.27
10832;BME280;5469;48.574;8.768;2023-01-24T01:24:48;96062.44;;;1.84;91.03
10832;BME280;5469;48.574;8.768;2023-01-24T01:27:21;96069.06;;;1.80;90.54
10832;BME280;5469;48.574;8.768;2023-01-24T01:29:55;96069.19;;;1.71;91.45
10832;BME280;5469;48.574;8.768;2023-01-24T01:32:28;96065.66;;;1.79;91.10
10832;BME280;5469;48.574;8.768;2023-01-24T01:35:03;96060.97;;;1.74;91.17
10832;BME280;5469;48.574;8.768;2023-01-24T01:37:36;96062.69;;;1.89;90.80
10832;BME280;5469;48.574;8.768;2023-01-24T01:40:10;96056.38;;;1.77;90.79
10832;BME280;5469;48.574;8.768;2023-01-24T01:42:48;96051.63;;;1.87;90.64
10832;BME280;5469;48.574;8.768;2023-01-24T01:45:41;96056.28;;;1.70;91.62
10832;BME280;5469;48.574;8.768;2023-01-24T01:48:19;96056.38;;;1.77;91.32
10832;BME280;5469;48.574;8.768;2023-01-24T01:51:01;96068.94;;;1.66;92.12
10832;BME280;5469;48.574;8.768;2023-01-24T01:53:38;96066.44;;;1.80;91.72
10832;BME280;5469;48.574;8.768;2023-01-24T01:56:22;96060.28;;;1.87;90.42
10832;BME280;5469;48.574;8.768;2023-01-24T01:59:02;96067.66;;;1.84;90.81
10832;BME280;5469;48.574;8.768;2023-01-24T02:01:37;96070.91;;;1.64;92.38
10832;BME280;5469;48.574;8.768;2023-01-24T02:04:14;96067.63;;;1.77;92.15
10832;BME280;5469;48.574;8.768;2023-01-24T02:06:54;96055.19;;;1.79;91.32
10832;BME280;5469;48.574;8.768;2023-01-24T02:09:33;96055.09;;;1.72;91.56
10832;BME280;5469;48.574;8.768;2023-01-24T02:12:10;96057.91;;;1.71;92.16
10832;BME280;5469;48.574;8.768;2023-01-24T02:14:46;96059.97;;;1.75;91.97
10832;BME280;5469;48.574;8.768;2023-01-24T02:17:40;96064.16;;;1.55;93.32
10832;BME280;5469;48.574;8.768;2023-01-24T02:20:38;96056.28;;;1.70;92.57
10832;BME280;5469;48.574;8.768;2023-01-24T02:23:22;96062.31;;;1.70;92.53
10832;BME280;5469;48.574;8.768;2023-01-24T02:26:04;96063.19;;;1.78;91.94
10832;BME280;5469;48.574;8.768;2023-01-24T02:28:39;96062.09;;;1.87;90.85
10832;BME280;5469;48.574;8.768;2023-01-24T02:31:13;96072.53;;;1.65;92.32
10832;BME280;5469;48.574;8.768;2023-01-24T02:33:46;96072.06;;;1.77;92.00
10832;BME280;5469;48.574;8.768;2023-01-24T02:36:22;96074.41;;;1.71;92.15
10832;BME280;5469;48.574;8.768;2023-01-24T02:39:02;96073.03;;;1.54;93.69
10832;BME280;5469;48.574;8.768;2023-01-24T02:41:43;96073.06;;;1.61;93.94
10832;BME280;5469;48.574;8.768;2023-01-24T02:44:21;96077.03;;;1.71;92.78
10832;BME280;5469;48.574;8.768;2023-01-24T02:46:56;96079.91;;;1.77;91.95
10832;BME280;5469;48.574;8.768;2023-01-24T02:49:29;96087.22;;;1.66;93.26
10832;BME280;5469;48.574;8.768;2023-01-24T02:52:02;96079.59;;;1.50;94.68
10832;BME280;5469;48.574;8.768;2023-01-24T02:54:53;96083.09;;;1.57;94.62
10832;BME280;5469;48.574;8.768;2023-01-24T02:57:28;96072.22;;;1.53;94.06
10832;BME280;5469;48.574;8.768;2023-01-24T03:00:24;96075.88;;;1.59;93.89
10832;BME280;5469;48.574;8.768;2023-01-24T03:02:57;96080.59;;;1.49;95.25
10832;BME280;5469;48.574;8.768;2023-01-24T03:05:31;96079.47;;;1.58;94.81
10832;BME280;5469;48.574;8.768;2023-01-24T03:08:30;96077.75;;;1.65;94.90
10832;BME280;5469;48.574;8.768;2023-01-24T03:11:05;96077.63;;;1.73;93.92
10832;BME280;5469;48.574;8.768;2023-01-24T03:13:40;96070.28;;;1.62;94.50
10832;BME280;5469;48.574;8.768;2023-01-24T03:16:30;96075.00;;;1.52;94.83
10832;BME280;5469;48.574;8.768;2023-01-24T03:19:21;96070.72;;;1.66;94.06
10832;BME280;5469;48.574;8.768;2023-01-24T03:22:11;96070.94;;;1.49;95.07
10832;BME280;5469;48.574;8.768;2023-01-24T03:25:02;96077.50;;;1.60;94.62
10832;BME280;5469;48.574;8.768;2023-01-24T03:27:52;96067.41;;;1.57;94.17
10832;BME280;5469;48.574;8.768;2023-01-24T03:30:45;96065.81;;;1.56;94.47
10832;BME280;5469;48.574;8.768;2023-01-24T03:33:35;96071.91;;;1.63;94.39
10832;BME280;5469;48.574;8.768;2023-01-24T03:36:26;96071.91;;;1.63;94.20
10832;BME280;5469;48.574;8.768;2023-01-24T03:39:03;96079.25;;;1.74;92.88
10832;BME280;5469;48.574;8.768;2023-01-24T03:41:54;96083.09;;;1.57;95.12
10832;BME280;5469;48.574;8.768;2023-01-24T03:44:27;96086.25;;;1.52;94.97
10832;BME280;5469;48.574;8.768;2023-01-24T03:47:02;96085.84;;;1.70;94.19
10832;BME280;5469;48.574;8.768;2023-01-24T03:49:35;96089.34;;;1.78;93.39
10832;BME280;5469;48.574;8.768;2023-01-24T03:52:26;96097.69;;;1.66;92.95
10832;BME280;5469;48.574;8.768;2023-01-24T03:55:00;96099.78;;;1.78;92.84
10832;BME280;5469;48.574;8.768;2023-01-24T03:57:34;96088.47;;;1.70;93.45
10832;BME280;5469;48.574;8.768;2023-01-24T04:00:08;96093.53;;;1.57;94.26
10832;BME280;5469;48.574;8.768;2023-01-24T04:02:43;96105.88;;;1.63;95.19
10832;BME280;5469;48.574;8.768;2023-01-24T04:05:17;96096.53;;;1.54;95.25
10832;BME280;5469;48.574;8.768;2023-01-24T04:07:53;96099.13;;;1.69;94.48
10832;BME280;5469;48.574;8.768;2023-01-24T04:10:26;96111.00;;;1.71;94.01
10832;BME280;5469;48.574;8.768;2023-01-24T04:13:00;96102.03;;;1.59;94.76
10832;BME280;5469;48.574;8.768;2023-01-24T04:15:33;96111.09;;;1.63;94.33
10832;BME280;5469;48.574;8.768;2023-01-24T04:18:08;96100.31;;;1.88;92.78
10832;BME280;5469;48.574;8.768;2023-01-24T04:20:41;96102.25;;;1.79;93.44
10832;BME280;5469;48.574;8.768;2023-01-24T04:23:14;96100.91;;;1.68;94.02
10832;BME280;5469;48.574;8.768;2023-01-24T04:25:51;96103.16;;;1.71;94.15
10832;BME280;5469;48.574;8.768;2023-01-24T04:28:26;96101.22;;;1.59;95.03
10832;BME280;5469;48.574;8.768;2023-01-24T04:31:01;96101.41;;;1.79;93.68
10832;BME280;5469;48.574;8.768;2023-01-24T04:33:36;96098.16;;;1.55;95.21
10832;BME280;5469;48.574;8.768;2023-01-24T04:36:09;96106.13;;;1.68;95.28
10832;BME280;5469;48.574;8.768;2023-01-24T04:38:43;96098.78;;;1.79;93.77
10832;BME280;5469;48.574;8.768;2023-01-24T04:41:16;96107.00;;;1.75;94.07
10832;BME280;5469;48.574;8.768;2023-01-24T04:43:50;96100.56;;;1.71;93.80
10832;BME280;5469;48.574;8.768;2023-01-24T04:46:23;96102.91;;;1.66;94.83
10832;BME280;5469;48.574;8.768;2023-01-24T04:48:58;96102.66;;;1.83;92.95
10832;BME280;5469;48.574;8.768;2023-01-24T04:51:31;96105.91;;;1.85;92.90
10832;BME280;5469;48.574;8.768;2023-01-24T04:54:05;96104.88;;;1.64;94.10
10832;BME280;5469;48.574;8.768;2023-01-24T04:56:38;96118.72;;;1.80;92.97
10832;BME280;5469;48.574;8.768;2023-01-24T04:59:12;96120.88;;;1.76;93.90
10832;BME280;5469;48.574;8.768;2023-01-24T05:01:45;96105.03;;;1.78;93.37
10832;BME280;5469;48.574;8.768;2023-01-24T05:04:20;96110.50;;;1.83;93.31
10832;BME280;5469;48.574;8.768;2023-01-24T05:06:53;96118.94;;;1.63;94.34
10832;BME280;5469;48.574;8.768;2023-01-24T05:09:27;96119.53;;;1.80;94.25
10832;BME280;5469;48.574;8.768;2023-01-24T05:12:00;96113.50;;;1.80;92.30
10832;BME280;5469;48.574;8.768;2023-01-24T05:14:33;96116.50;;;1.77;94.00
10832;BME280;5469;48.574;8.768;2023-01-24T05:17:07;96120.19;;;1.67;94.07
10832;BME280;5469;48.574;8.768;2023-01-24T05:19:41;96114.41;;;1.72;94.50
10832;BME280;5469;48.574;8.768;2023-01-24T05:22:15;96129.75;;;1.60;94.30
10832;BME280;5469;48.574;8.768;2023-01-24T05:24:48;96134.09;;;1.53;95.62
10832;BME280;5469;48.574;8.768;2023-01-24T05:27:21;96121.72;;;1.77;94.07
10832;BME280;5469;48.574;8.768;2023-01-24T05:29:54;96124.34;;;1.77;93.33
10832;BME280;5469;48.574;8.768;2023-01-24T05:32:28;96127.53;;;1.79;94.29
10832;BME280;5469;48.574;8.768;2023-01-24T05:35:03;96131.41;;;1.61;95.01
10832;BME280;5469;48.574;8.768;2023-01-24T05:37:37;96135.34;;;1.57;96.02
10832;BME280;5469;48.574;8.768;2023-01-24T05:40:10;96138.00;;;1.79;94.28
10832;BME280;5469;48.574;8.768;2023-01-24T05:42:44;96144.16;;;1.71;94.39
10832;BME280;5469;48.574;8.768;2023-01-24T05:45:17;96140.34;;;1.73;94.39
10832;BME280;5469;48.574;8.768;2023-01-24T05:47:50;96152.81;;;1.71;94.49
10832;BME280;5469;48.574;8.768;2023-01-24T05:50:25;96144.75;;;1.88;93.61
10832;BME280;5469;48.574;8.768;2023-01-24T05:53:01;96150.16;;;1.86;93.34
10832;BME280;5469;48.574;8.768;2023-01-24T05:55:34;96156.25;;;1.57;94.65
10832;BME280;5469;48.574;8.768;2023-01-24T05:58:07;96157.69;;;1.60;96.17
10832;BME280;5469;48.574;8.768;2023-01-24T06:00:41;96154.06;;;1.75;93.37
10832;BME280;5469;48.574;8.768;2023-01-24T06:03:17;96154.81;;;1.69;94.78
10832;BME280;5469;48.574;8.768;2023-01-24T06:05:53;96156.75;;;1.82;94.57
10832;BME280;5469;48.574;8.768;2023-01-24T06:08:27;96154.81;;;1.69;94.99
10832;BME280;5469;48.574;8.768;2023-01-24T06:11:04;96156.56;;;1.84;93.65
10832;BME280;5469;48.574;8.768;2023-01-24T06:13:38;96155.84;;;1.90;93.45
10832;BME280;5469;48.574;8.768;2023-01-24T06:16:13;96162.69;;;1.91;92.77
10832;BME280;5469;48.574;8.768;2023-01-24T06:18:48;96160.94;;;1.77;93.45
10832;BME280;5469;48.574;8.768;2023-01-24T06:21:37;96160.19;;;1.83;94.08
10832;BME280;5469;48.574;8.768;2023-01-24T06:24:18;96163.09;;;1.94;93.00
10832;BME280;5469;48.574;8.768;2023-01-24T06:26:53;96160.97;;;1.83;92.61
10832;BME280;5469;48.574;8.768;2023-01-24T06:29:27;96154.19;;;1.89;93.48
10832;BME280;5469;48.574;8.768;2023-01-24T06:32:08;96168.13;;;1.74;93.52
10832;BME280;5469;48.574;8.768;2023-01-24T06:35:07;96161.78;;;1.84;93.85
10832;BME280;5469;48.574;8.768;2023-01-24T06:37:46;96165.78;;;1.80;94.28
10832;BME280;5469;48.574;8.768;2023-01-24T06:40:22;96174.25;;;1.82;93.98
10832;BME280;5469;48.574;8.768;2023-01-24T06:42:57;96171.00;;;1.80;94.88
10832;BME280;5469;48.574;8.768;2023-01-24T06:45:31;96172.25;;;1.84;93.50
10832;BME280;5469;48.574;8.768;2023-01-24T06:48:05;96177.94;;;1.87;93.87
10832;BME280;5469;48.574;8.768;2023-01-24T06:50:39;96164.06;;;2.08;91.34
10832;BME280;5469;48.574;8.768;2023-01-24T06:53:13;96175.69;;;1.84;94.01
10832;BME280;5469;48.574;8.768;2023-01-24T06:55:47;96177.25;;;2.00;92.23
10832;BME280;5469;48.574;8.768;2023-01-24T06:58:20;96183.84;;;1.96;92.60
10832;BME280;5469;48.574;8.768;2023-01-24T07:00:54;96190.28;;;1.79;94.23
10832;BME280;5469;48.574;8.768;2023-01-24T07:03:27;96189.56;;;1.85;93.73
10832;BME280;5469;48.574;8.768;2023-01-24T07:06:00;96190.75;;;1.82;94.04
10832;BME280;5469;48.574;8.768;2023-01-24T07:08:35;96189.03;;;1.74;94.16
10832;BME280;5469;48.574;8.768;2023-01-24T07:11:08;96191.25;;;1.92;93.81
10832;BME280;5469;48.574;8.768;2023-01-24T07:13:42;96185.06;;;1.79;94.41
10832;BME280;5469;48.574;8.768;2023-01-24T07:16:15;96197.16;;;1.80;95.03
10832;BME280;5469;48.574;8.768;2023-01-24T07:18:49;96199.41;;;1.68;95.69
10832;BME280;5469;48.574;8.768;2023-01-24T07:21:23;96204.19;;;1.79;95.50
10832;BME280;5469;48.574;8.768;2023-01-24T07:23:59;96211.28;;;1.85;94.30
10832;BME280;5469;48.574;8.768;2023-01-24T07:26:32;96208.59;;;1.79;94.82
10832;BME280;5469;48.574;8.768;2023-01-24T07:29:06;96216.63;;;1.77;95.35
10832;BME280;5469;48.574;8.768;2023-01-24T07:31:39;96222.56;;;1.86;94.14
10832;BME280;5469;48.574;8.768;2023-01-24T07:34:13;96224.59;;;2.05;92.93
10832;BME280;5469;48.574;8.768;2023-01-24T07:36:47;96217.19;;;2.09;92.40
10832;BME280;5469;48.574;8.768;2023-01-24T07:39:22;96213.88;;;2.00;92.41
10832;BME280;5469;48.574;8.768;2023-01-24T07:41:55;96220.47;;;1.81;93.60
10832;BME280;5469;48.574;8.768;2023-01-24T07:44:29;96230.13;;;1.81;95.02
10832;BME280;5469;48.574;8.768;2023-01-24T07:47:02;96229.47;;;1.93;94.05
10832;BME280;5469;48.574;8.768;2023-01-24T07:49:35;96231.41;;;1.85;94.18
10832;BME280;5469;48.574;8.768;2023-01-24T07:52:09;96225.38;;;1.84;94.57
10832;BME280;5469;48.574;8.768;2023-01-24T07:54:43;96230.81;;;1.89;94.34
10832;BME280;5469;48.574;8.768;2023-01-24T07:57:17;96248.16;;;1.90;93.75
10832;BME280;5469;48.574;8.768;2023-01-24T07:59:50;96246.97;;;1.93;94.32
10832;BME280;5469;48.574;8.768;2023-01-24T08:02:23;96248.31;;;1.89;93.74
10832;BME280;5469;48.574;8.768;2023-01-24T08:04:57;96236.25;;;1.88;94.10
10832;BME280;5469;48.574;8.768;2023-01-24T08:07:30;96246.72;;;1.88;94.94
10832;BME280;5469;48.574;8.768;2023-01-24T08:10:07;96239.28;;;2.06;93.28
10832;BME280;5469;48.574;8.768;2023-01-24T08:12:40;96244.50;;;2.06;93.15
10832;BME280;5469;48.574;8.768;2023-01-24T08:15:14;96252.31;;;1.85;94.09
10832;BME280;5469;48.574;8.768;2023-01-24T08:17:47;96253.81;;;1.94;94.39
10832;BME280;5469;48.574;8.768;2023-01-24T08:20:21;96257.75;;;2.19;92.45
10832;BME280;5469;48.574;8.768;2023-01-24T08:22:54;96253.56;;;1.89;93.85
10832;BME280;5469;48.574;8.768;2023-01-24T08:25:30;96262.06;;;2.12;92.72
10832;BME280;5469;48.574;8.768;2023-01-24T08:28:04;96262.06;;;2.12;92.27
10832;BME280;5469;48.574;8.768;2023-01-24T08:30:37;96258.59;;;2.05;92.56
10832;BME280;5469;48.574;8.768;2023-01-24T08:33:10;96261.75;;;2.01;93.82
10832;BME280;5469;48.574;8.768;2023-01-24T08:35:49;96276.53;;;2.08;93.49
10832;BME280;5469;48.574;8.768;2023-01-24T08:38:22;96262.00;;;2.21;91.42
10832;BME280;5469;48.574;8.768;2023-01-24T08:41:02;96270.78;;;1.98;93.18
10832;BME280;5469;48.574;8.768;2023-01-24T08:43:35;96284.22;;;1.95;94.28
10832;BME280;5469;48.574;8.768;2023-01-24T08:46:09;96286.41;;;1.77;94.97
10832;BME280;5469;48.574;8.768;2023-01-24T08:48:42;96283.69;;;1.85;95.29
10832;BME280;5469;48.574;8.768;2023-01-24T08:51:15;96289.44;;;1.95;94.40
10832;BME280;5469;48.574;8.768;2023-01-24T08:53:49;96287.09;;;2.00;93.53
10832;BME280;5469;48.574;8.768;2023-01-24T08:56:24;96282.03;;;2.13;92.84
10832;BME280;5469;48.574;8.768;2023-01-24T08:58:57;96286.34;;;2.06;93.12
10832;BME280;5469;48.574;8.768;2023-01-24T09:01:31;96283.31;;;2.39;91.74
10832;BME280;5469;48.574;8.768;2023-01-24T09:04:05;96293.00;;;2.24;92.03
10832;BME280;5469;48.574;8.768;2023-01-24T09:06:38;96281.38;;;2.26;91.90
10832;BME280;5469;48.574;8.768;2023-01-24T09:09:12;96297.75;;;2.35;91.58
10832;BME280;5469;48.574;8.768;2023-01-24T09:11:47;96292.25;;;2.30;91.42
10832;BME280;5469;48.574;8.768;2023-01-24T09:14:20;96291.75;;;2.19;91.41
10832;BME280;5469;48.574;8.768;2023-01-24T09:16:54;96297.09;;;2.11;92.92
10832;BME280;5469;48.574;8.768;2023-01-24T09:19:27;96290.44;;;2.30;92.45
10832;BME280;5469;48.574;8.768;2023-01-24T09:22:00;96289.53;;;2.38;91.36
10832;BME280;5469;48.574;8.768;2023-01-24T09:24:33;96290.84;;;2.49;91.13
10832;BME280;5469;48.574;8.768;2023-01-24T09:27:09;96290.28;;;2.32;91.08
10832;BME280;5469;48.574;8.768;2023-01-24T09:37:04;96296.91;;;2.49;90.31
10832;BME280;5469;48.574;8.768;2023-01-24T09:39:37;96298.00;;;2.40;91.53
10832;BME280;5469;48.574;8.768;2023-01-24T09:42:22;96298.44;;;2.44;90.34
10832;BME280;5469;48.574;8.768;2023-01-24T09:45:08;96305.75;;;2.48;90.90
10832;BME280;5469;48.574;8.768;2023-01-24T09:47:49;96300.47;;;2.42;91.45
10832;BME280;5469;48.574;8.768;2023-01-24T09:50:26;96295.22;;;2.42;91.18
10832;BME280;5469;48.574;8.768;2023-01-24T09:53:01;96297.25;;;2.46;90.75
10832;BME280;5469;48.574;8.768;2023-01-24T09:55:40;96294.91;;;2.51;91.40
10832;BME280;5469;48.574;8.768;2023-01-24T09:58:25;96287.75;;;2.81;89.45
10832;BME280;5469;48.574;8.768;2023-01-24T10:01:04;96292.53;;;2.56;89.84
10832;BME280;5469;48.574;8.768;2023-01-24T10:03:39;96300.28;;;2.65;90.74
10832;BME280;5469;48.574;8.768;2023-01-24T10:06:15;96298.28;;;2.67;89.73
10832;BME280;5469;48.574;8.768;2023-01-24T10:08:56;96287.91;;;2.37;91.58
10832;BME280;5469;48.574;8.768;2023-01-24T10:11:40;96295.38;;;2.55;91.04
10832;BME280;5469;48.574;8.768;2023-01-24T10:14:41;96300.44;;;2.78;90.90
10832;BME280;5469;48.574;8.768;2023-01-24T10:20:28;96298.66;;;2.63;90.42
10832;BME280;5469;48.574;8.768;2023-01-24T10:23:08;96296.91;;;2.92;89.50
10832;BME280;5469;48.574;8.768;2023-01-24T10:25:49;96296.97;;;2.77;89.24
10832;BME280;5469;48.574;8.768;2023-01-24T10:28:27;96300.44;;;2.78;89.60
10832;BME280;5469;48.574;8.768;2023-01-24T10:31:05;96303.41;;;2.96;89.92
10832;BME280;5469;48.574;8.768;2023-01-24T10:33:44;96308.31;;;3.06;88.17
10832;BME280;5469;48.574;8.768;2023-01-24T10:36:24;96306.59;;;2.92;89.25
10832;BME280;5469;48.574;8.768;2023-01-24T10:39:01;96310.41;;;2.68;89.75
10832;BME280;5469;48.574;8.768;2023-01-24T10:41:35;96304.91;;;2.62;90.04
10832;BME280;5469;48.574;8.768;2023-01-24T10:44:13;96310.28;;;2.76;90.59
10832;BME280;5469;48.574;8.768;2023-01-24T10:47:04;96302.16;;;2.49;91.61
10832;BME280;5469;48.574;8.768;2023-01-24T10:49:57;96301.53;;;2.69;90.55
10832;BME280;5469;48.574;8.768;2023-01-24T10:52:30;96302.78;;;2.73;89.86
10832;BME280;5469;48.574;8.768;2023-01-24T10:55:26;96289.19;;;2.84;89.81
10832;BME280;5469;48.574;8.768;2023-01-24T10:58:19;96288.94;;;2.57;90.20
10832;BME280;5469;48.574;8.768;2023-01-24T11:00:58;96283.47;;;2.74;90.53
10832;BME280;5469;48.574;8.768;2023-01-24T11:03:33;96289.69;;;2.94;89.35
10832;BME280;5469;48.574;8.768;2023-01-24T11:06:31;96288.41;;;2.62;89.36
10832;BME280;5469;48.574;8.768;2023-01-24T11:09:10;96284.66;;;2.71;90.85
10832;BME280;5469;48.574;8.768;2023-01-24T11:11:45;96279.09;;;2.81;88.55
10832;BME280;5469;48.574;8.768;2023-01-24T11:14:22;96277.59;;;2.93;89.84
10832;BME280;5469;48.574;8.768;2023-01-24T11:16:57;96282.66;;;2.73;90.28
10832;BME280;5469;48.574;8.768;2023-01-24T11:19:33;96285.06;;;2.75;89.29
10832;BME280;5469;48.574;8.768;2023-01-24T11:22:20;96281.88;;;3.22;88.49
10832;BME280;5469;48.574;8.768;2023-01-24T11:24:56;96287.38;;;3.06;88.28
10832;BME280;5469;48.574;8.768;2023-01-24T11:27:31;96284.91;;;3.26;87.31
10832;BME280;5469;48.574;8.768;2023-01-24T11:30:07;96285.94;;;2.82;88.51
10832;BME280;5469;48.574;8.768;2023-01-24T11:32:56;96276.16;;;3.12;88.67
10832;BME280;5469;48.574;8.768;2023-01-24T11:35:37;96272.50;;;3.13;87.76
10832;BME280;5469;48.574;8.768;2023-01-24T11:38:28;96275.84;;;3.00;87.66
10832;BME280;5469;48.574;8.768;2023-01-24T11:41:08;96267.97;;;3.00;88.01
10832;BME280;5469;48.574;8.768;2023-01-24T11:47:00;96263.09;;;2.91;89.94
10832;BME280;5469;48.574;8.768;2023-01-24T11:50:02;96269.00;;;2.99;89.08
10832;BME280;5469;48.574;8.768;2023-01-24T11:52:50;96265.50;;;2.92;89.37
10832;BME280;5469;48.574;8.768;2023-01-24T11:55:33;96262.47;;;3.17;88.28
10832;BME280;5469;48.574;8.768;2023-01-24T11:58:33;96256.53;;;3.01;88.00
10832;BME280;5469;48.574;8.768;2023-01-24T12:01:16;96265.56;;;2.99;87.98
10832;BME280;5469;48.574;8.768;2023-01-24T12:04:04;96261.75;;;3.01;88.95
10832;BME280;5469;48.574;8.768;2023-01-24T12:06:44;96260.53;;;2.76;90.42
10832;BME280;5469;48.574;8.768;2023-01-24T12:09:23;96263.84;;;3.13;88.75
10832;BME280;5469;48.574;8.768;2023-01-24T12:12:04;96253.13;;;3.08;88.27
10832;BME280;5469;48.574;8.768;2023-01-24T12:18:18;96252.81;;;3.17;87.72
10832;BME280;5469;48.574;8.768;2023-01-24T12:21:00;96247.59;;;3.24;87.70
10832;BME280;5469;48.574;8.768;2023-01-24T12:23:43;96251.13;;;3.10;87.57
10832;BME280;5469;48.574;8.768;2023-01-24T12:26:24;96239.06;;;2.87;89.25
10832;BME280;5469;48.574;8.768;2023-01-24T12:29:03;96239.97;;;3.29;87.65
10832;BME280;5469;48.574;8.768;2023-01-24T12:31:52;96238.50;;;2.92;88.09
10832;BME280;5469;48.574;8.768;2023-01-24T12:34:36;96234.69;;;2.94;87.97
10832;BME280;5469;48.574;8.768;2023-01-24T12:37:19;96245.03;;;3.02;88.38
10832;BME280;5469;48.574;8.768;2023-01-24T12:40:00;96237.41;;;3.08;88.39
10832;BME280;5469;48.574;8.768;2023-01-24T12:42:46;96235.50;;;3.23;87.57
10832;BME280;5469;48.574;8.768;2023-01-24T12:45:25;96222.94;;;3.12;88.07
10832;BME280;5469;48.574;8.768;2023-01-24T12:48:05;96231.88;;;3.24;87.93
10832;BME280;5469;48.574;8.768;2023-01-24T12:50:48;96233.13;;;3.28;87.66
10832;BME280;5469;48.574;8.768;2023-01-24T12:53:31;96240.66;;;3.10;87.67
10832;BME280;5469;48.574;8.768;2023-01-24T12:56:10;96243.31;;;2.88;89.99
10832;BME280;5469;48.574;8.768;2023-01-24T12:58:48;96226.44;;;2.97;88.89
10832;BME280;5469;48.574;8.768;2023-01-24T13:01:41;96229.06;;;3.25;88.19
10832;BME280;5469;48.574;8.768;2023-01-24T13:04:25;96236.06;;;2.90;89.08
10832;BME280;5469;48.574;8.768;2023-01-24T13:07:14;96230.66;;;3.20;87.92
10832;BME280;5469;48.574;8.768;2023-01-24T13:09:57;96229.47;;;2.94;89.02
10832;BME280;5469;48.574;8.768;2023-01-24T13:12:34;96228.94;;;3.05;88.51
10832;BME280;5469;48.574;8.768;2023-01-24T13:15:17;96224.50;;;3.06;88.12
10832;BME280;5469;48.574;8.768;2023-01-24T13:18:11;96220.97;;;3.20;87.85
10832;BME280;5469;48.574;8.768;2023-01-24T13:21:00;96207.38;;;3.38;86.92
10832;BME280;5469;48.574;8.768;2023-01-24T13:24:01;96220.59;;;2.95;89.46
10832;BME280;5469;48.574;8.768;2023-01-24T13:26:56;96221.41;;;3.24;88.32
10832;BME280;5469;48.574;8.768;2023-01-24T13:29:44;96228.44;;;2.95;88.93
10832;BME280;5469;48.574;8.768;2023-01-24T13:32:22;96222.84;;;2.98;88.46
10832;BME280;5469;48.574;8.768;2023-01-24T13:34:57;96231.03;;;3.17;88.78
10832;BME280;5469;48.574;8.768;2023-01-24T13:37:33;96221.34;;;2.89;89.20
10832;BME280;5469;48.574;8.768;2023-01-24T13:40:22;96231.41;;;3.14;88.07
10832;BME280;5469;48.574;8.768;2023-01-24T13:42:56;96229.41;;;3.16;87.78
10832;BME280;5469;48.574;8.768;2023-01-24T13:45:49;96228.53;;;3.09;88.59
10832;BME280;5469;48.574;8.768;2023-01-24T13:48:54;96229.69;;;2.99;88.69
10832;BME280;5469;48.574;8.768;2023-01-24T13:51:47;96225.94;;;2.80;89.97
10832;BME280;5469;48.574;8.768;2023-01-24T13:54:37;96240.06;;;2.86;90.47
10832;BME280;5469;48.574;8.768;2023-01-24T13:57:33;96244.06;;;2.82;89.50
10832;BME280;5469;48.574;8.768;2023-01-24T14:00:18;96231.22;;;2.87;89.98
10832;BME280;5469;48.574;8.768;2023-01-24T14:03:02;96235.47;;;2.88;88.47
10832;BME280;5469;48.574;8.768;2023-01-24T14:05:46;96231.69;;;2.97;88.94
10832;BME280;5469;48.574;8.768;2023-01-24T14:08:39;96236.53;;;3.00;88.47
10832;BME280;5469;48.574;8.768;2023-01-24T14:11:19;96237.31;;;2.94;88.75
10832;BME280;5469;48.574;8.768;2023-01-24T14:13:57;96232.16;;;3.08;88.30
10832;BME280;5469;48.574;8.768;2023-01-24T14:16:57;96242.75;;;3.21;87.50
10832;BME280;5469;48.574;8.768;2023-01-24T14:19:33;96255.88;;;2.99;88.39
10832;BME280;5469;48.574;8.768;2023-01-24T14:22:20;96252.25;;;3.00;88.06
10832;BME280;5469;48.574;8.768;2023-01-24T14:24:56;96250.91;;;3.04;88.55
10832;BME280;5469;48.574;8.768;2023-01-24T14:27:38;96246.91;;;2.87;89.14
10832;BME280;5469;48.574;8.768;2023-01-24T14:30:38;96252.22;;;2.94;89.05
10832;BME280;5469;48.574;8.768;2023-01-24T14:33:26;96255.38;;;3.11;87.42
10832;BME280;5469;48.574;8.768;2023-01-24T14:36:07;96255.81;;;2.93;88.54
10832;BME280;5469;48.574;8.768;2023-01-24T14:38:42;96258.03;;;2.68;89.94